createdAt,value
2022-09-28T00:01:08.022Z,8.80
2022-09-28T00:03:35.402Z,7.90
2022-09-28T00:06:08.049Z,8.70
2022-09-28T00:11:03.279Z,7.30
2022-09-28T00:16:05.683Z,7.30
2022-09-28T00:18:33.501Z,9.30
2022-09-28T00:21:02.649Z,8.50
2022-09-28T00:23:29.620Z,7.20
2022-09-28T00:28:23.672Z,7.80
2022-09-28T00:30:55.591Z,8.30
2022-09-28T00:35:59.555Z,8.30
2022-09-28T00:38:28.398Z,9.60
2022-09-28T00:43:24.769Z,8.20
2022-09-28T00:46:05.085Z,7.10
2022-09-28T00:48:36.356Z,9.50
2022-09-28T00:51:09.097Z,8.20
2022-09-28T00:53:40.169Z,8.30
2022-09-28T00:56:19.111Z,7.90
2022-09-28T00:58:49.897Z,8.90
2022-09-28T01:03:45.556Z,9.50
2022-09-28T01:06:21.436Z,8.30
2022-09-28T01:08:51.871Z,9.50
2022-09-28T01:11:19.945Z,8.30
2022-09-28T01:13:51.246Z,8.30
2022-09-28T01:16:24.525Z,9.40
2022-09-28T01:19:26.185Z,7.70
2022-09-28T01:22:25.297Z,7.10
2022-09-28T01:25:17.661Z,9.10
2022-09-28T01:28:13.379Z,7.70
2022-09-28T01:30:58.272Z,8.20
2022-09-28T01:33:35.768Z,7.80
2022-09-28T01:36:23.312Z,8.10
2022-09-28T01:38:55.060Z,8.10
2022-09-28T01:41:24.058Z,7.80
2022-09-28T01:43:55.731Z,8.00
2022-09-28T01:46:36.011Z,7.20
2022-09-28T01:49:09.980Z,8.00
2022-09-28T01:51:43.623Z,9.20
2022-09-28T01:54:19.026Z,6.70
2022-09-28T01:56:52.648Z,8.50
2022-09-28T01:59:27.072Z,8.00
2022-09-28T02:01:57.440Z,8.70
2022-09-28T02:04:32.624Z,7.90
2022-09-28T02:07:07.722Z,8.60
2022-09-28T02:09:44.283Z,8.50
2022-09-28T02:12:16.131Z,7.80
2022-09-28T02:14:45.563Z,7.80
2022-09-28T02:17:12.973Z,7.80
2022-09-28T02:19:41.310Z,7.70
2022-09-28T02:22:30.842Z,6.60
2022-09-28T02:25:07.687Z,7.70
2022-09-28T02:27:36.676Z,7.80
2022-09-28T02:30:05.265Z,7.80
2022-09-28T02:32:35.577Z,6.70
2022-09-28T02:37:29.674Z,8.10
2022-09-28T02:42:39.122Z,6.90
2022-09-28T02:45:24.262Z,8.60
2022-09-28T02:48:41.330Z,7.90
2022-09-28T02:51:41.422Z,7.90
2022-09-28T02:54:26.284Z,8.50
2022-09-28T02:57:23.840Z,7.80
2022-09-28T03:00:12.043Z,7.90
2022-09-28T03:03:13.997Z,8.00
2022-09-28T03:06:18.964Z,7.80
2022-09-28T03:11:25.637Z,8.40
2022-09-28T03:23:47.351Z,6.60
2022-09-28T03:26:16.884Z,7.10
2022-09-28T03:33:44.288Z,7.70
2022-09-28T03:38:38.958Z,8.80
2022-09-28T03:41:07.896Z,9.00
2022-09-28T03:43:36.961Z,8.20
2022-09-28T03:51:09.131Z,6.80
2022-09-28T03:53:36.459Z,7.70
2022-09-28T03:56:08.905Z,6.40
2022-09-28T04:01:12.961Z,7.30
2022-09-28T04:03:43.748Z,7.60
2022-09-28T04:08:38.363Z,8.50
2022-09-28T04:16:01.888Z,6.60
2022-09-28T04:18:33.047Z,6.20
2022-09-28T04:21:12.234Z,7.70
2022-09-28T04:26:25.497Z,7.10
2022-09-28T04:31:47.819Z,10.10
2022-09-28T04:34:20.228Z,6.70
2022-09-28T04:39:16.235Z,6.70
2022-09-28T04:41:47.944Z,6.70
2022-09-28T05:01:58.016Z,6.90
2022-09-28T05:07:41.026Z,5.10
2022-09-28T05:15:07.743Z,6.10
2022-09-28T05:20:05.451Z,6.00
2022-09-28T05:22:33.523Z,6.10
2022-09-28T05:53:05.798Z,6.80
2022-09-28T05:58:02.052Z,5.10
2022-09-28T06:00:30.484Z,5.90
2022-09-28T06:05:25.261Z,5.90
2022-09-28T06:12:48.583Z,7.10
2022-09-28T06:20:35.572Z,6.20
2022-09-28T06:23:13.544Z,6.30
2022-09-28T06:28:11.812Z,6.40
2022-09-28T06:30:40.060Z,6.60
2022-09-28T06:33:12.699Z,6.60
2022-09-28T06:43:12.619Z,7.10
2022-09-28T06:48:33.559Z,8.50
2022-09-28T06:51:01.793Z,8.90
2022-09-28T06:56:10.381Z,7.70
2022-09-28T06:58:37.628Z,7.70
2022-09-28T07:01:05.771Z,9.00
2022-09-28T07:07:14.171Z,8.20
2022-09-28T07:15:18.409Z,8.90
2022-09-28T07:17:59.391Z,9.90
2022-09-28T07:31:09.712Z,9.70
2022-09-28T07:46:36.902Z,9.50
2022-09-28T07:52:18.644Z,11.90
2022-09-28T07:55:07.263Z,10.00
2022-09-28T08:01:11.789Z,11.30
2022-09-28T08:06:11.230Z,11.50
2022-09-28T08:08:39.193Z,11.60
2022-09-28T08:11:07.041Z,10.60
2022-09-28T08:21:53.466Z,12.40
2022-09-28T08:24:21.125Z,11.50
2022-09-28T08:29:17.760Z,13.80
2022-09-28T08:31:50.842Z,12.80
2022-09-28T08:34:40.630Z,13.10
2022-09-28T08:40:57.552Z,12.90
2022-09-28T08:44:12.374Z,12.90
2022-09-28T08:47:06.564Z,13.10
2022-09-28T08:49:47.024Z,13.40
2022-09-28T08:52:55.050Z,13.50
2022-09-28T08:55:43.179Z,15.10
2022-09-28T08:58:30.404Z,14.60
2022-09-28T09:03:33.887Z,14.50
2022-09-28T09:06:27.598Z,15.60
2022-09-28T09:09:13.232Z,14.80
2022-09-28T09:12:00.728Z,15.10
2022-09-28T09:14:37.536Z,15.70
2022-09-28T09:17:32.436Z,14.90
2022-09-28T09:20:24.977Z,16.80
2022-09-28T09:23:10.552Z,15.70
2022-09-28T09:25:47.531Z,17.10
2022-09-28T09:28:36.182Z,14.60
2022-09-28T09:31:27.987Z,14.90
2022-09-28T09:34:11.963Z,14.50
2022-09-28T09:37:03.200Z,16.50
2022-09-28T09:40:07.447Z,15.70
2022-09-28T09:43:28.058Z,15.20
2022-09-28T09:46:57.701Z,15.70
2022-09-28T09:49:57.259Z,17.60
2022-09-28T09:58:11.441Z,17.10
2022-09-28T10:00:50.932Z,17.50
2022-09-28T10:03:47.046Z,17.00
2022-09-28T10:06:30.116Z,17.50
2022-09-28T10:09:31.186Z,16.80
2022-09-28T10:12:22.847Z,17.00
2022-09-28T10:14:50.591Z,18.70
2022-09-28T10:17:20.095Z,17.70
2022-09-28T10:20:06.669Z,16.40
2022-09-28T10:22:43.781Z,18.70
2022-09-28T10:25:16.025Z,18.60
2022-09-28T10:27:46.121Z,17.50
2022-09-28T10:30:18.476Z,18.50
2022-09-28T10:32:48.928Z,19.20
2022-09-28T10:35:19.755Z,17.90
2022-09-28T10:38:13.622Z,17.50
2022-09-28T10:40:49.879Z,17.40
2022-09-28T10:43:29.065Z,18.90
2022-09-28T10:46:09.363Z,18.60
2022-09-28T10:49:06.089Z,20.30
2022-09-28T10:51:44.656Z,19.20
2022-09-28T10:54:22.977Z,18.30
2022-09-28T10:56:53.513Z,18.00
2022-09-28T10:59:30.851Z,17.70
2022-09-28T11:02:29.497Z,16.30
2022-09-28T11:05:06.558Z,17.50
2022-09-28T11:07:47.122Z,19.40
2022-09-28T11:10:23.728Z,18.30
2022-09-28T11:12:52.983Z,18.80
2022-09-28T11:15:25.578Z,19.50
2022-09-28T11:20:27.902Z,20.20
2022-09-28T11:23:22.147Z,22.30
2022-09-28T11:26:04.523Z,21.50
2022-09-28T11:28:34.469Z,21.90
2022-09-28T11:36:52.868Z,22.40
2022-09-28T11:39:39.942Z,23.50
2022-09-28T11:44:48.057Z,22.80
2022-09-28T11:50:24.354Z,19.10
2022-09-28T11:53:03.741Z,18.20
2022-09-28T11:55:39.905Z,17.90
2022-09-28T11:58:23.113Z,18.00
2022-09-28T12:00:56.300Z,17.50
2022-09-28T12:03:46.771Z,17.40
2022-09-28T12:06:18.449Z,18.50
2022-09-28T12:09:16.457Z,17.20
2022-09-28T12:11:58.787Z,17.10
2022-09-28T12:14:45.661Z,16.90
2022-09-28T12:17:24.669Z,17.90
2022-09-28T12:20:05.701Z,15.30
2022-09-28T12:22:38.069Z,16.10
2022-09-28T12:25:12.579Z,16.90
2022-09-28T12:27:53.645Z,16.40
2022-09-28T12:30:22.733Z,17.10
2022-09-28T12:33:13.174Z,19.40
2022-09-28T12:36:19.679Z,18.50
2022-09-28T12:39:21.748Z,20.10
2022-09-28T12:42:01.797Z,19.20
2022-09-28T12:44:58.570Z,18.00
2022-09-28T12:47:47.916Z,17.70
2022-09-28T12:50:53.949Z,18.50
2022-09-28T12:53:44.116Z,16.40
2022-09-28T12:56:11.779Z,15.50
2022-09-28T12:58:59.992Z,15.70
2022-09-28T13:06:45.143Z,14.80
2022-09-28T13:09:22.514Z,14.00
2022-09-28T13:12:25.563Z,14.30
2022-09-28T13:15:08.625Z,14.20
2022-09-28T13:17:54.181Z,13.70
2022-09-28T13:20:54.097Z,14.20
2022-09-28T13:23:27.691Z,14.30
2022-09-28T13:26:07.120Z,14.20
2022-09-28T13:28:37.381Z,14.20
2022-09-28T13:31:05.356Z,14.40
2022-09-28T13:33:41.537Z,14.50
2022-09-28T13:36:33.045Z,14.70
2022-09-28T13:39:00.809Z,15.70
2022-09-28T13:41:33.440Z,14.80
2022-09-28T13:44:20.271Z,13.70
2022-09-28T13:49:17.299Z,14.70
2022-09-28T13:52:02.702Z,14.00
2022-09-28T13:54:55.638Z,14.60
2022-09-28T13:57:28.187Z,14.40
2022-09-28T14:00:19.072Z,14.50
2022-09-28T14:02:51.990Z,14.70
2022-09-28T14:05:41.206Z,14.70
2022-09-28T14:08:34.635Z,14.80
2022-09-28T14:11:24.725Z,13.60
2022-09-28T14:13:59.962Z,14.20
2022-09-28T14:16:32.607Z,15.20
2022-09-28T14:19:24.862Z,14.90
2022-09-28T14:22:19.327Z,15.40
2022-09-28T14:25:11.036Z,15.50
2022-09-28T14:30:13.763Z,15.20
2022-09-28T14:32:45.286Z,16.50
2022-09-28T14:35:18.941Z,14.00
2022-09-28T14:38:07.420Z,15.10
2022-09-28T14:41:20.207Z,15.20
2022-09-28T14:48:47.935Z,15.30
2022-09-28T14:51:26.714Z,16.90
2022-09-28T14:53:55.339Z,15.40
2022-09-28T14:58:56.781Z,15.50
2022-09-28T15:01:25.464Z,15.30
2022-09-28T15:03:56.132Z,15.80
2022-09-28T15:06:24.381Z,15.30
2022-09-28T15:11:24.599Z,15.90
2022-09-28T15:14:04.516Z,16.80
2022-09-28T15:19:35.480Z,16.40
2022-09-28T15:24:34.598Z,18.00
2022-09-28T15:27:04.626Z,18.40
2022-09-28T15:34:51.566Z,23.10
2022-09-28T15:37:40.658Z,23.20
2022-09-28T15:40:15.186Z,24.10
2022-09-28T15:42:42.487Z,25.40
2022-09-28T15:45:34.630Z,23.90
2022-09-28T15:48:34.176Z,22.80
2022-09-28T15:51:10.690Z,25.20
2022-09-28T15:54:03.001Z,25.30
2022-09-28T15:56:30.989Z,26.50
2022-09-28T15:59:11.516Z,26.70
2022-09-28T16:01:40.383Z,27.30
2022-09-28T16:04:47.953Z,27.50
2022-09-28T16:07:56.042Z,28.10
2022-09-28T16:10:34.551Z,27.90
2022-09-28T16:13:18.605Z,29.20
2022-09-28T16:15:45.816Z,29.50
2022-09-28T16:18:20.165Z,29.10
2022-09-28T16:20:50.368Z,29.70
2022-09-28T16:23:17.201Z,28.80
2022-09-28T16:26:02.826Z,25.90
2022-09-28T16:28:38.418Z,24.30
2022-09-28T16:31:27.260Z,22.40
2022-09-28T16:34:01.163Z,22.40
2022-09-28T16:36:38.517Z,21.40
2022-09-28T16:41:32.765Z,19.00
2022-09-28T16:44:02.171Z,18.60
2022-09-28T16:46:37.330Z,19.10
2022-09-28T16:49:06.780Z,18.50
2022-09-28T16:51:33.990Z,18.50
2022-09-28T16:54:32.290Z,17.50
2022-09-28T17:04:24.396Z,15.80
2022-09-28T17:06:54.233Z,15.60
2022-09-28T17:09:22.216Z,15.10
2022-09-28T17:14:24.061Z,14.50
2022-09-28T17:17:13.780Z,14.50
2022-09-28T17:19:40.932Z,15.50
2022-09-28T17:22:09.345Z,13.90
2022-09-28T17:41:51.768Z,11.70
2022-09-28T17:44:20.467Z,12.60
2022-09-28T17:46:49.515Z,12.80
2022-09-28T17:49:16.980Z,12.60
2022-09-28T17:59:10.608Z,12.10
2022-09-28T18:01:39.707Z,12.10
2022-09-28T18:04:08.771Z,12.00
2022-09-28T18:06:37.055Z,10.80
2022-09-28T18:09:04.720Z,13.20
2022-09-28T18:11:32.404Z,11.70
2022-09-28T18:26:19.552Z,12.00
2022-09-28T18:31:15.431Z,10.70
2022-09-28T18:38:38.140Z,11.20
2022-09-28T18:41:10.406Z,11.40
2022-09-28T18:43:37.755Z,11.80
2022-09-28T18:46:09.379Z,11.80
2022-09-28T18:48:37.608Z,11.20
2022-09-28T18:51:09.152Z,11.10
2022-09-28T18:56:08.681Z,11.10
2022-09-28T18:58:36.743Z,10.00
2022-09-28T19:01:29.534Z,11.10
2022-09-28T19:04:06.582Z,11.00
2022-09-28T19:06:34.730Z,10.90
2022-09-28T19:11:29.031Z,12.20
2022-09-28T19:16:26.675Z,10.70
2022-09-28T19:18:55.496Z,11.10
2022-09-28T19:26:18.960Z,9.60
2022-09-28T19:28:45.714Z,9.90
2022-09-28T19:31:13.269Z,11.90
2022-09-28T19:33:41.004Z,12.10
2022-09-28T19:36:14.497Z,10.50
2022-09-28T19:41:39.281Z,10.80
2022-09-28T19:44:24.517Z,10.70
2022-09-28T19:47:00.332Z,10.00
2022-09-28T19:49:32.906Z,10.70
2022-09-28T19:52:15.671Z,10.40
2022-09-28T19:54:56.668Z,10.70
2022-09-28T19:57:25.884Z,10.70
2022-09-28T20:07:20.449Z,9.50
2022-09-28T20:17:09.922Z,11.10
2022-09-28T20:24:32.587Z,9.60
2022-09-28T20:56:38.004Z,8.40
2022-09-28T20:59:08.000Z,9.40
2022-09-28T21:04:04.929Z,9.20
2022-09-28T21:06:34.398Z,9.20
2022-09-28T21:09:01.516Z,9.00
2022-09-28T21:11:29.845Z,8.10
2022-09-28T21:14:01.704Z,10.00
2022-09-28T21:16:31.147Z,9.00
2022-09-28T21:18:58.347Z,8.10
2022-09-28T21:21:26.085Z,7.80
2022-09-28T21:23:54.080Z,8.90
2022-09-28T21:26:26.315Z,9.00
2022-09-28T21:31:27.517Z,8.80
2022-09-28T21:43:45.919Z,9.90
2022-09-28T21:51:10.132Z,7.60
2022-09-28T21:53:38.280Z,8.50
2022-09-28T21:56:07.733Z,8.30
2022-09-28T21:58:35.904Z,8.20
2022-09-28T22:01:15.417Z,7.70
2022-09-28T22:03:44.476Z,7.20
2022-09-28T22:06:11.882Z,8.30
2022-09-28T22:11:12.076Z,9.40
2022-09-28T22:13:44.302Z,8.10
2022-09-28T22:16:13.063Z,8.10
2022-09-28T22:21:17.001Z,7.20
2022-09-28T22:28:44.227Z,8.20
2022-09-28T22:33:38.618Z,8.00
2022-09-28T22:46:08.773Z,8.80
2022-09-28T22:51:05.269Z,7.80
2022-09-28T22:53:34.609Z,7.60
2022-09-28T22:56:05.279Z,6.50
2022-09-28T22:58:36.136Z,7.50
2022-09-28T23:01:11.666Z,8.70
2022-09-28T23:11:06.117Z,6.30
2022-09-28T23:16:12.789Z,7.30
2022-09-28T23:18:44.085Z,6.20
2022-09-28T23:21:16.232Z,7.20
2022-09-28T23:23:44.187Z,8.50
2022-09-28T23:26:16.845Z,7.20
2022-09-28T23:31:23.664Z,7.10
2022-09-28T23:38:45.601Z,6.70
2022-09-28T23:46:07.258Z,7.60
2022-09-28T23:48:35.155Z,6.90
2022-09-28T23:51:02.889Z,5.70
2022-09-28T23:53:32.153Z,6.90
